sensor_id;sensor_type;location;lat;lon;timestamp;P1;durP1;ratioP1;P2;durP2;ratioP2
43160;SDS011;40968;52.342;5.528;2023-12-04T00:01:32;43.00;;;14.70;;
43160;SDS011;40968;52.342;5.528;2023-12-04T00:03:59;37.58;;;13.07;;
43160;SDS011;40968;52.342;5.528;2023-12-04T00:06:25;47.25;;;15.02;;
43160;SDS011;40968;52.342;5.528;2023-12-04T00:08:53;48.47;;;15.20;;
43160;SDS011;40968;52.342;5.528;2023-12-04T00:11:20;46.72;;;14.55;;
43160;SDS011;40968;52.342;5.528;2023-12-04T00:13:46;36.35;;;13.65;;
43160;SDS011;40968;52.342;5.528;2023-12-04T00:16:13;56.25;;;14.98;;
43160;SDS011;40968;52.342;5.528;2023-12-04T00:18:39;47.35;;;15.93;;
43160;SDS011;40968;52.342;5.528;2023-12-04T00:21:06;45.55;;;14.80;;
43160;SDS011;40968;52.342;5.528;2023-12-04T00:23:33;47.63;;;15.95;;
43160;SDS011;40968;52.342;5.528;2023-12-04T00:26:00;46.58;;;14.07;;
43160;SDS011;40968;52.342;5.528;2023-12-04T00:28:27;51.03;;;16.55;;
43160;SDS011;40968;52.342;5.528;2023-12-04T00:30:54;54.13;;;16.10;;
43160;SDS011;40968;52.342;5.528;2023-12-04T00:33:20;44.55;;;15.68;;
43160;SDS011;40968;52.342;5.528;2023-12-04T00:35:47;46.72;;;14.98;;
43160;SDS011;40968;52.342;5.528;2023-12-04T00:38:14;50.38;;;16.65;;
43160;SDS011;40968;52.342;5.528;2023-12-04T00:40:40;49.88;;;16.20;;
43160;SDS011;40968;52.342;5.528;2023-12-04T00:43:08;54.08;;;15.93;;
43160;SDS011;40968;52.342;5.528;2023-12-04T00:45:35;49.42;;;17.73;;
43160;SDS011;40968;52.342;5.528;2023-12-04T00:48:02;51.38;;;15.57;;
43160;SDS011;40968;52.342;5.528;2023-12-04T00:50:29;58.42;;;18.25;;
43160;SDS011;40968;52.342;5.528;2023-12-04T00:52:55;48.00;;;16.90;;
43160;SDS011;40968;52.342;5.528;2023-12-04T00:55:22;44.28;;;15.07;;
43160;SDS011;40968;52.342;5.528;2023-12-04T00:57:48;52.10;;;16.95;;
43160;SDS011;40968;52.342;5.528;2023-12-04T01:00:16;52.42;;;15.45;;
43160;SDS011;40968;52.342;5.528;2023-12-04T01:02:43;51.92;;;17.77;;
43160;SDS011;40968;52.342;5.528;2023-12-04T01:05:10;58.25;;;17.60;;
43160;SDS011;40968;52.342;5.528;2023-12-04T01:07:37;58.40;;;17.88;;
43160;SDS011;40968;52.342;5.528;2023-12-04T01:10:03;53.78;;;17.15;;
43160;SDS011;40968;52.342;5.528;2023-12-04T01:12:31;55.30;;;17.75;;
43160;SDS011;40968;52.342;5.528;2023-12-04T01:14:57;66.65;;;18.33;;
43160;SDS011;40968;52.342;5.528;2023-12-04T01:17:25;57.67;;;16.27;;
43160;SDS011;40968;52.342;5.528;2023-12-04T01:19:52;48.97;;;16.80;;
43160;SDS011;40968;52.342;5.528;2023-12-04T01:22:18;60.20;;;18.75;;
43160;SDS011;40968;52.342;5.528;2023-12-04T01:24:45;49.08;;;16.60;;
43160;SDS011;40968;52.342;5.528;2023-12-04T01:27:11;64.50;;;19.02;;
43160;SDS011;40968;52.342;5.528;2023-12-04T01:29:38;49.10;;;16.83;;
43160;SDS011;40968;52.342;5.528;2023-12-04T01:32:05;65.75;;;19.30;;
43160;SDS011;40968;52.342;5.528;2023-12-04T01:34:33;51.53;;;16.48;;
43160;SDS011;40968;52.342;5.528;2023-12-04T01:37:00;61.15;;;18.80;;
43160;SDS011;40968;52.342;5.528;2023-12-04T01:39:26;59.83;;;19.88;;
43160;SDS011;40968;52.342;5.528;2023-12-04T01:41:53;53.22;;;17.77;;
43160;SDS011;40968;52.342;5.528;2023-12-04T01:44:20;76.03;;;21.08;;
43160;SDS011;40968;52.342;5.528;2023-12-04T01:46:47;61.22;;;19.20;;
43160;SDS011;40968;52.342;5.528;2023-12-04T01:49:14;52.35;;;18.20;;
43160;SDS011;40968;52.342;5.528;2023-12-04T01:51:42;65.82;;;18.75;;
43160;SDS011;40968;52.342;5.528;2023-12-04T01:54:09;57.65;;;18.15;;
43160;SDS011;40968;52.342;5.528;2023-12-04T01:56:36;48.95;;;17.55;;
43160;SDS011;40968;52.342;5.528;2023-12-04T01:59:03;63.70;;;18.85;;
43160;SDS011;40968;52.342;5.528;2023-12-04T02:25:45;69.13;;;19.58;;
43160;SDS011;40968;52.342;5.528;2023-12-04T02:28:13;60.30;;;18.60;;
43160;SDS011;40968;52.342;5.528;2023-12-04T02:30:43;53.37;;;17.07;;
43160;SDS011;40968;52.342;5.528;2023-12-04T02:33:11;66.53;;;19.27;;
43160;SDS011;40968;52.342;5.528;2023-12-04T02:35:39;60.00;;;16.55;;
43160;SDS011;40968;52.342;5.528;2023-12-04T02:38:08;53.00;;;16.75;;
43160;SDS011;40968;52.342;5.528;2023-12-04T02:40:35;56.65;;;16.88;;
43160;SDS011;40968;52.342;5.528;2023-12-04T02:43:03;57.55;;;17.33;;
43160;SDS011;40968;52.342;5.528;2023-12-04T02:45:30;60.63;;;16.98;;
43160;SDS011;40968;52.342;5.528;2023-12-04T02:47:56;64.63;;;18.15;;
43160;SDS011;40968;52.342;5.528;2023-12-04T02:50:23;59.25;;;15.75;;
43160;SDS011;40968;52.342;5.528;2023-12-04T02:52:49;51.85;;;15.68;;
43160;SDS011;40968;52.342;5.528;2023-12-04T02:55:16;47.42;;;15.60;;
43160;SDS011;40968;52.342;5.528;2023-12-04T02:57:43;55.00;;;17.23;;
43160;SDS011;40968;52.342;5.528;2023-12-04T03:00:11;49.83;;;15.80;;
43160;SDS011;40968;52.342;5.528;2023-12-04T03:02:38;56.92;;;16.73;;
43160;SDS011;40968;52.342;5.528;2023-12-04T03:05:05;50.20;;;16.75;;
43160;SDS011;40968;52.342;5.528;2023-12-04T03:07:32;47.80;;;15.10;;
43160;SDS011;40968;52.342;5.528;2023-12-04T03:09:58;61.10;;;18.00;;
43160;SDS011;40968;52.342;5.528;2023-12-04T03:12:25;46.58;;;13.90;;
43160;SDS011;40968;52.342;5.528;2023-12-04T03:14:52;52.13;;;15.93;;
43160;SDS011;40968;52.342;5.528;2023-12-04T03:17:19;50.80;;;15.88;;
43160;SDS011;40968;52.342;5.528;2023-12-04T03:19:46;49.10;;;14.98;;
43160;SDS011;40968;52.342;5.528;2023-12-04T03:22:13;49.47;;;15.13;;
43160;SDS011;40968;52.342;5.528;2023-12-04T03:24:39;49.33;;;16.30;;
43160;SDS011;40968;52.342;5.528;2023-12-04T03:27:06;44.63;;;14.43;;
43160;SDS011;40968;52.342;5.528;2023-12-04T03:29:32;39.75;;;13.90;;
43160;SDS011;40968;52.342;5.528;2023-12-04T03:31:59;45.90;;;14.35;;
43160;SDS011;40968;52.342;5.528;2023-12-04T03:34:27;45.72;;;15.10;;
43160;SDS011;40968;52.342;5.528;2023-12-04T03:36:53;50.80;;;15.10;;
43160;SDS011;40968;52.342;5.528;2023-12-04T03:39:20;46.55;;;13.75;;
43160;SDS011;40968;52.342;5.528;2023-12-04T03:41:46;41.33;;;14.15;;
43160;SDS011;40968;52.342;5.528;2023-12-04T03:44:13;40.42;;;13.35;;
43160;SDS011;40968;52.342;5.528;2023-12-04T03:46:39;61.92;;;14.27;;
43160;SDS011;40968;52.342;5.528;2023-12-04T03:49:06;49.53;;;13.57;;
43160;SDS011;40968;52.342;5.528;2023-12-04T03:51:34;51.78;;;13.98;;
43160;SDS011;40968;52.342;5.528;2023-12-04T03:54:00;39.72;;;13.45;;
43160;SDS011;40968;52.342;5.528;2023-12-04T03:56:27;45.70;;;13.45;;
43160;SDS011;40968;52.342;5.528;2023-12-04T03:58:54;41.83;;;13.32;;
43160;SDS011;40968;52.342;5.528;2023-12-04T04:01:20;43.55;;;13.43;;
43160;SDS011;40968;52.342;5.528;2023-12-04T04:03:47;49.47;;;13.93;;
43160;SDS011;40968;52.342;5.528;2023-12-04T04:06:13;43.40;;;14.10;;
43160;SDS011;40968;52.342;5.528;2023-12-04T04:08:41;42.85;;;12.73;;
43160;SDS011;40968;52.342;5.528;2023-12-04T04:11:08;45.47;;;15.38;;
43160;SDS011;40968;52.342;5.528;2023-12-04T04:13:35;41.22;;;13.48;;
43160;SDS011;40968;52.342;5.528;2023-12-04T04:16:01;39.58;;;13.32;;
43160;SDS011;40968;52.342;5.528;2023-12-04T04:18:28;45.53;;;12.80;;
43160;SDS011;40968;52.342;5.528;2023-12-04T04:20:55;45.95;;;13.98;;
43160;SDS011;40968;52.342;5.528;2023-12-04T04:23:21;36.70;;;12.60;;
43160;SDS011;40968;52.342;5.528;2023-12-04T04:25:49;35.22;;;12.45;;
43160;SDS011;40968;52.342;5.528;2023-12-04T04:28:16;39.83;;;12.38;;
43160;SDS011;40968;52.342;5.528;2023-12-04T04:30:42;38.97;;;12.93;;
43160;SDS011;40968;52.342;5.528;2023-12-04T04:33:09;29.95;;;12.18;;
43160;SDS011;40968;52.342;5.528;2023-12-04T04:35:36;34.75;;;12.40;;
43160;SDS011;40968;52.342;5.528;2023-12-04T04:38:03;32.88;;;11.02;;
43160;SDS011;40968;52.342;5.528;2023-12-04T04:40:30;38.55;;;12.07;;
43160;SDS011;40968;52.342;5.528;2023-12-04T04:42:58;39.92;;;12.23;;
43160;SDS011;40968;52.342;5.528;2023-12-04T04:45:24;34.63;;;10.93;;
43160;SDS011;40968;52.342;5.528;2023-12-04T04:47:51;35.25;;;11.75;;
43160;SDS011;40968;52.342;5.528;2023-12-04T04:50:17;42.70;;;12.65;;
43160;SDS011;40968;52.342;5.528;2023-12-04T04:52:44;39.85;;;11.52;;
43160;SDS011;40968;52.342;5.528;2023-12-04T04:55:11;37.67;;;12.25;;
43160;SDS011;40968;52.342;5.528;2023-12-04T04:57:37;40.88;;;11.55;;
43160;SDS011;40968;52.342;5.528;2023-12-04T05:00:06;31.60;;;11.35;;
43160;SDS011;40968;52.342;5.528;2023-12-04T05:02:33;41.47;;;12.52;;
43160;SDS011;40968;52.342;5.528;2023-12-04T05:05:02;44.70;;;13.07;;
43160;SDS011;40968;52.342;5.528;2023-12-04T05:07:29;44.10;;;10.98;;
43160;SDS011;40968;52.342;5.528;2023-12-04T05:09:56;30.85;;;10.60;;
43160;SDS011;40968;52.342;5.528;2023-12-04T05:12:22;37.33;;;12.00;;
43160;SDS011;40968;52.342;5.528;2023-12-04T05:14:49;36.13;;;12.93;;
43160;SDS011;40968;52.342;5.528;2023-12-04T05:17:17;35.92;;;11.98;;
43160;SDS011;40968;52.342;5.528;2023-12-04T05:19:43;26.25;;;10.05;;
43160;SDS011;40968;52.342;5.528;2023-12-04T05:22:10;35.95;;;12.23;;
43160;SDS011;40968;52.342;5.528;2023-12-04T05:24:36;33.30;;;11.15;;
43160;SDS011;40968;52.342;5.528;2023-12-04T05:27:03;35.60;;;11.52;;
43160;SDS011;40968;52.342;5.528;2023-12-04T05:29:30;38.60;;;10.80;;
43160;SDS011;40968;52.342;5.528;2023-12-04T05:31:57;38.47;;;12.88;;
43160;SDS011;40968;52.342;5.528;2023-12-04T05:34:25;34.10;;;11.85;;
43160;SDS011;40968;52.342;5.528;2023-12-04T05:36:51;33.10;;;10.48;;
43160;SDS011;40968;52.342;5.528;2023-12-04T05:39:18;34.10;;;10.90;;
43160;SDS011;40968;52.342;5.528;2023-12-04T05:41:44;52.15;;;13.27;;
43160;SDS011;40968;52.342;5.528;2023-12-04T05:44:11;33.83;;;10.88;;
43160;SDS011;40968;52.342;5.528;2023-12-04T05:46:37;29.25;;;11.00;;
43160;SDS011;40968;52.342;5.528;2023-12-04T05:49:04;32.60;;;10.52;;
43160;SDS011;40968;52.342;5.528;2023-12-04T05:51:32;27.75;;;10.60;;
43160;SDS011;40968;52.342;5.528;2023-12-04T05:56:33;31.00;;;10.15;;
43160;SDS011;40968;52.342;5.528;2023-12-04T05:59:00;30.73;;;10.70;;
43160;SDS011;40968;52.342;5.528;2023-12-04T06:01:27;33.83;;;11.38;;
43160;SDS011;40968;52.342;5.528;2023-12-04T06:03:53;31.00;;;10.32;;
43160;SDS011;40968;52.342;5.528;2023-12-04T06:06:20;32.22;;;11.20;;
43160;SDS011;40968;52.342;5.528;2023-12-04T06:08:48;36.33;;;10.88;;
43160;SDS011;40968;52.342;5.528;2023-12-04T06:11:14;39.80;;;10.90;;
43160;SDS011;40968;52.342;5.528;2023-12-04T06:13:42;33.05;;;9.85;;
43160;SDS011;40968;52.342;5.528;2023-12-04T06:16:08;27.63;;;10.98;;
43160;SDS011;40968;52.342;5.528;2023-12-04T06:18:35;39.80;;;10.05;;
43160;SDS011;40968;52.342;5.528;2023-12-04T06:21:02;37.13;;;9.82;;
43160;SDS011;40968;52.342;5.528;2023-12-04T06:23:29;29.35;;;9.68;;
43160;SDS011;40968;52.342;5.528;2023-12-04T06:25:58;28.70;;;11.23;;
43160;SDS011;40968;52.342;5.528;2023-12-04T06:28:25;29.20;;;9.80;;
43160;SDS011;40968;52.342;5.528;2023-12-04T06:30:53;29.63;;;9.32;;
43160;SDS011;40968;52.342;5.528;2023-12-04T06:33:20;36.40;;;10.90;;
43160;SDS011;40968;52.342;5.528;2023-12-04T06:35:47;27.00;;;10.10;;
43160;SDS011;40968;52.342;5.528;2023-12-04T06:38:14;32.38;;;9.73;;
43160;SDS011;40968;52.342;5.528;2023-12-04T06:40:42;28.08;;;9.50;;
43160;SDS011;40968;52.342;5.528;2023-12-04T06:43:10;29.35;;;10.50;;
43160;SDS011;40968;52.342;5.528;2023-12-04T06:45:38;36.13;;;9.18;;
43160;SDS011;40968;52.342;5.528;2023-12-04T06:48:05;28.00;;;9.27;;
43160;SDS011;40968;52.342;5.528;2023-12-04T06:50:33;32.20;;;9.98;;
43160;SDS011;40968;52.342;5.528;2023-12-04T06:53:00;30.83;;;10.00;;
43160;SDS011;40968;52.342;5.528;2023-12-04T06:55:26;30.27;;;9.73;;
43160;SDS011;40968;52.342;5.528;2023-12-04T06:57:53;34.38;;;9.68;;
43160;SDS011;40968;52.342;5.528;2023-12-04T07:00:21;33.70;;;9.52;;
43160;SDS011;40968;52.342;5.528;2023-12-04T07:02:48;32.20;;;10.15;;
43160;SDS011;40968;52.342;5.528;2023-12-04T07:05:15;36.00;;;10.55;;
43160;SDS011;40968;52.342;5.528;2023-12-04T07:07:41;29.55;;;9.88;;
43160;SDS011;40968;52.342;5.528;2023-12-04T07:10:08;36.97;;;11.30;;
43160;SDS011;40968;52.342;5.528;2023-12-04T07:12:39;26.52;;;9.48;;
43160;SDS011;40968;52.342;5.528;2023-12-04T07:15:06;24.95;;;9.18;;
43160;SDS011;40968;52.342;5.528;2023-12-04T07:17:35;35.08;;;10.13;;
43160;SDS011;40968;52.342;5.528;2023-12-04T07:20:02;30.73;;;8.90;;
43160;SDS011;40968;52.342;5.528;2023-12-04T07:22:31;30.48;;;9.73;;
43160;SDS011;40968;52.342;5.528;2023-12-04T07:24:57;25.95;;;9.65;;
43160;SDS011;40968;52.342;5.528;2023-12-04T07:27:24;29.40;;;9.90;;
43160;SDS011;40968;52.342;5.528;2023-12-04T07:29:51;26.10;;;9.27;;
43160;SDS011;40968;52.342;5.528;2023-12-04T07:32:18;27.88;;;9.30;;
43160;SDS011;40968;52.342;5.528;2023-12-04T07:34:46;30.48;;;9.27;;
43160;SDS011;40968;52.342;5.528;2023-12-04T07:37:12;27.65;;;8.63;;
43160;SDS011;40968;52.342;5.528;2023-12-04T07:39:39;27.10;;;8.80;;
43160;SDS011;40968;52.342;5.528;2023-12-04T07:42:08;25.40;;;9.07;;
43160;SDS011;40968;52.342;5.528;2023-12-04T07:44:34;24.30;;;8.30;;
43160;SDS011;40968;52.342;5.528;2023-12-04T07:47:01;26.70;;;8.27;;
43160;SDS011;40968;52.342;5.528;2023-12-04T07:49:27;23.52;;;7.80;;
43160;SDS011;40968;52.342;5.528;2023-12-04T07:51:55;24.90;;;8.57;;
43160;SDS011;40968;52.342;5.528;2023-12-04T07:54:23;29.35;;;8.77;;
43160;SDS011;40968;52.342;5.528;2023-12-04T07:56:51;21.95;;;7.93;;
43160;SDS011;40968;52.342;5.528;2023-12-04T07:59:18;26.90;;;8.57;;
43160;SDS011;40968;52.342;5.528;2023-12-04T08:01:45;18.85;;;7.00;;
43160;SDS011;40968;52.342;5.528;2023-12-04T08:04:11;29.52;;;9.20;;
43160;SDS011;40968;52.342;5.528;2023-12-04T08:06:38;24.88;;;8.10;;
43160;SDS011;40968;52.342;5.528;2023-12-04T08:09:06;28.10;;;8.60;;
43160;SDS011;40968;52.342;5.528;2023-12-04T08:11:35;22.42;;;7.55;;
43160;SDS011;40968;52.342;5.528;2023-12-04T08:14:01;26.33;;;7.97;;
43160;SDS011;40968;52.342;5.528;2023-12-04T08:16:28;23.50;;;7.85;;
43160;SDS011;40968;52.342;5.528;2023-12-04T08:18:55;26.50;;;8.13;;
43160;SDS011;40968;52.342;5.528;2023-12-04T08:21:21;23.30;;;7.55;;
43160;SDS011;40968;52.342;5.528;2023-12-04T08:23:48;19.45;;;7.05;;
43160;SDS011;40968;52.342;5.528;2023-12-04T08:26:21;26.30;;;8.25;;
43160;SDS011;40968;52.342;5.528;2023-12-04T08:28:49;21.33;;;7.40;;
43160;SDS011;40968;52.342;5.528;2023-12-04T08:31:15;22.63;;;6.97;;
43160;SDS011;40968;52.342;5.528;2023-12-04T08:33:42;25.33;;;7.90;;
43160;SDS011;40968;52.342;5.528;2023-12-04T08:36:09;28.20;;;7.47;;
43160;SDS011;40968;52.342;5.528;2023-12-04T08:38:37;19.10;;;7.00;;
43160;SDS011;40968;52.342;5.528;2023-12-04T08:41:04;23.02;;;8.20;;
43160;SDS011;40968;52.342;5.528;2023-12-04T08:43:32;21.70;;;7.53;;
43160;SDS011;40968;52.342;5.528;2023-12-04T08:45:59;24.98;;;7.75;;
43160;SDS011;40968;52.342;5.528;2023-12-04T08:48:26;22.58;;;7.53;;
43160;SDS011;40968;52.342;5.528;2023-12-04T08:50:52;22.90;;;7.63;;
43160;SDS011;40968;52.342;5.528;2023-12-04T08:53:19;23.48;;;7.32;;
43160;SDS011;40968;52.342;5.528;2023-12-04T08:55:46;28.80;;;7.72;;
43160;SDS011;40968;52.342;5.528;2023-12-04T08:58:12;21.23;;;6.65;;
43160;SDS011;40968;52.342;5.528;2023-12-04T09:00:40;23.40;;;7.25;;
43160;SDS011;40968;52.342;5.528;2023-12-04T09:03:08;19.77;;;7.30;;
43160;SDS011;40968;52.342;5.528;2023-12-04T09:05:35;17.83;;;6.65;;
43160;SDS011;40968;52.342;5.528;2023-12-04T09:08:02;20.60;;;7.03;;
43160;SDS011;40968;52.342;5.528;2023-12-04T09:10:28;19.65;;;6.90;;
43160;SDS011;40968;52.342;5.528;2023-12-04T09:12:55;21.80;;;7.38;;
43160;SDS011;40968;52.342;5.528;2023-12-04T09:15:21;20.10;;;7.05;;
43160;SDS011;40968;52.342;5.528;2023-12-04T09:17:49;17.10;;;6.40;;
43160;SDS011;40968;52.342;5.528;2023-12-04T09:20:16;21.02;;;7.05;;
43160;SDS011;40968;52.342;5.528;2023-12-04T09:22:43;23.42;;;7.05;;
43160;SDS011;40968;52.342;5.528;2023-12-04T09:25:09;22.98;;;8.23;;
43160;SDS011;40968;52.342;5.528;2023-12-04T09:27:36;26.27;;;7.68;;
43160;SDS011;40968;52.342;5.528;2023-12-04T09:30:03;24.27;;;6.82;;
43160;SDS011;40968;52.342;5.528;2023-12-04T09:32:30;23.75;;;7.45;;
43160;SDS011;40968;52.342;5.528;2023-12-04T09:34:58;22.70;;;8.00;;
43160;SDS011;40968;52.342;5.528;2023-12-04T09:37:25;20.20;;;6.93;;
43160;SDS011;40968;52.342;5.528;2023-12-04T09:39:51;16.70;;;6.88;;
43160;SDS011;40968;52.342;5.528;2023-12-04T09:42:18;22.73;;;6.90;;
43160;SDS011;40968;52.342;5.528;2023-12-04T09:44:45;14.90;;;6.10;;
43160;SDS011;40968;52.342;5.528;2023-12-04T09:47:13;27.92;;;8.18;;
43160;SDS011;40968;52.342;5.528;2023-12-04T09:49:42;17.27;;;6.45;;
43160;SDS011;40968;52.342;5.528;2023-12-04T09:52:11;23.33;;;6.55;;
43160;SDS011;40968;52.342;5.528;2023-12-04T09:54:38;22.58;;;7.28;;
43160;SDS011;40968;52.342;5.528;2023-12-04T09:57:06;23.90;;;7.95;;
43160;SDS011;40968;52.342;5.528;2023-12-04T09:59:33;22.58;;;7.20;;
43160;SDS011;40968;52.342;5.528;2023-12-04T10:02:01;20.75;;;6.47;;
43160;SDS011;40968;52.342;5.528;2023-12-04T10:04:27;19.85;;;6.00;;
43160;SDS011;40968;52.342;5.528;2023-12-04T10:06:54;18.48;;;6.20;;
43160;SDS011;40968;52.342;5.528;2023-12-04T10:09:22;22.80;;;7.18;;
43160;SDS011;40968;52.342;5.528;2023-12-04T10:11:50;17.08;;;6.82;;
43160;SDS011;40968;52.342;5.528;2023-12-04T10:14:18;17.70;;;5.68;;
43160;SDS011;40968;52.342;5.528;2023-12-04T10:16:45;19.58;;;6.55;;
43160;SDS011;40968;52.342;5.528;2023-12-04T10:19:15;21.38;;;6.60;;
43160;SDS011;40968;52.342;5.528;2023-12-04T10:21:43;19.77;;;6.18;;
43160;SDS011;40968;52.342;5.528;2023-12-04T10:24:11;15.18;;;6.95;;
43160;SDS011;40968;52.342;5.528;2023-12-04T10:26:39;21.10;;;6.50;;
43160;SDS011;40968;52.342;5.528;2023-12-04T10:29:16;12.50;;;5.45;;
43160;SDS011;40968;52.342;5.528;2023-12-04T10:31:43;14.43;;;5.65;;
43160;SDS011;40968;52.342;5.528;2023-12-04T10:34:09;17.27;;;5.53;;
43160;SDS011;40968;52.342;5.528;2023-12-04T10:36:36;22.95;;;5.93;;
43160;SDS011;40968;52.342;5.528;2023-12-04T10:39:03;21.77;;;6.35;;
43160;SDS011;40968;52.342;5.528;2023-12-04T10:41:30;16.45;;;5.72;;
43160;SDS011;40968;52.342;5.528;2023-12-04T10:43:58;16.83;;;6.20;;
43160;SDS011;40968;52.342;5.528;2023-12-04T10:46:26;15.23;;;5.50;;
43160;SDS011;40968;52.342;5.528;2023-12-04T10:48:53;14.32;;;5.30;;
43160;SDS011;40968;52.342;5.528;2023-12-04T10:51:19;18.00;;;6.20;;
43160;SDS011;40968;52.342;5.528;2023-12-04T10:53:47;13.55;;;5.07;;
43160;SDS011;40968;52.342;5.528;2023-12-04T10:56:15;15.13;;;5.85;;
43160;SDS011;40968;52.342;5.528;2023-12-04T10:58:45;17.15;;;5.57;;
43160;SDS011;40968;52.342;5.528;2023-12-04T11:01:18;16.55;;;5.47;;
43160;SDS011;40968;52.342;5.528;2023-12-04T11:03:47;15.55;;;5.40;;
43160;SDS011;40968;52.342;5.528;2023-12-04T11:06:16;17.08;;;5.55;;
43160;SDS011;40968;52.342;5.528;2023-12-04T11:08:44;16.13;;;5.68;;
43160;SDS011;40968;52.342;5.528;2023-12-04T11:11:18;13.80;;;5.93;;
43160;SDS011;40968;52.342;5.528;2023-12-04T11:13:51;16.73;;;5.28;;
43160;SDS011;40968;52.342;5.528;2023-12-04T11:16:22;15.43;;;5.22;;
43160;SDS011;40968;52.342;5.528;2023-12-04T11:18:55;15.50;;;5.55;;
43160;SDS011;40968;52.342;5.528;2023-12-04T11:21:27;15.65;;;5.38;;
43160;SDS011;40968;52.342;5.528;2023-12-04T11:23:55;18.05;;;5.93;;
43160;SDS011;40968;52.342;5.528;2023-12-04T11:26:23;16.30;;;5.50;;
43160;SDS011;40968;52.342;5.528;2023-12-04T11:28:51;20.25;;;6.43;;
43160;SDS011;40968;52.342;5.528;2023-12-04T11:31:18;16.92;;;6.55;;
43160;SDS011;40968;52.342;5.528;2023-12-04T11:33:47;16.63;;;5.50;;
43160;SDS011;40968;52.342;5.528;2023-12-04T11:36:13;16.15;;;5.68;;
43160;SDS011;40968;52.342;5.528;2023-12-04T11:38:57;17.10;;;5.55;;
43160;SDS011;40968;52.342;5.528;2023-12-04T11:41:29;18.20;;;6.32;;
43160;SDS011;40968;52.342;5.528;2023-12-04T11:43:56;15.70;;;6.50;;
43160;SDS011;40968;52.342;5.528;2023-12-04T11:46:23;24.83;;;6.55;;
43160;SDS011;40968;52.342;5.528;2023-12-04T11:48:51;21.90;;;7.40;;
43160;SDS011;40968;52.342;5.528;2023-12-04T11:54:18;14.32;;;6.03;;
43160;SDS011;40968;52.342;5.528;2023-12-04T11:57:01;18.63;;;6.55;;
43160;SDS011;40968;52.342;5.528;2023-12-04T11:59:47;18.40;;;6.10;;
43160;SDS011;40968;52.342;5.528;2023-12-04T12:02:14;17.63;;;7.10;;
43160;SDS011;40968;52.342;5.528;2023-12-04T12:04:41;22.73;;;6.75;;
43160;SDS011;40968;52.342;5.528;2023-12-04T13:07:47;19.55;;;6.78;;
43160;SDS011;40968;52.342;5.528;2023-12-04T13:20:52;17.92;;;7.22;;
43160;SDS011;40968;52.342;5.528;2023-12-04T13:23:18;19.00;;;6.15;;
43160;SDS011;40968;52.342;5.528;2023-12-04T13:25:45;20.48;;;7.05;;
43160;SDS011;40968;52.342;5.528;2023-12-04T13:28:11;20.10;;;6.90;;
43160;SDS011;40968;52.342;5.528;2023-12-04T13:30:39;24.80;;;8.35;;
43160;SDS011;40968;52.342;5.528;2023-12-04T13:33:07;27.08;;;8.15;;
43160;SDS011;40968;52.342;5.528;2023-12-04T13:35:34;21.45;;;6.95;;
43160;SDS011;40968;52.342;5.528;2023-12-04T13:38:02;18.15;;;6.35;;
43160;SDS011;40968;52.342;5.528;2023-12-04T13:40:32;22.38;;;7.15;;
43160;SDS011;40968;52.342;5.528;2023-12-04T13:43:00;19.30;;;7.05;;
43160;SDS011;40968;52.342;5.528;2023-12-04T13:45:44;19.40;;;6.38;;
43160;SDS011;40968;52.342;5.528;2023-12-04T13:48:10;15.75;;;6.30;;
43160;SDS011;40968;52.342;5.528;2023-12-04T13:50:37;16.90;;;6.55;;
43160;SDS011;40968;52.342;5.528;2023-12-04T13:53:05;24.15;;;7.53;;
43160;SDS011;40968;52.342;5.528;2023-12-04T13:55:33;18.67;;;6.90;;
43160;SDS011;40968;52.342;5.528;2023-12-04T13:58:14;22.25;;;7.07;;
43160;SDS011;40968;52.342;5.528;2023-12-04T14:00:55;20.25;;;7.28;;
43160;SDS011;40968;52.342;5.528;2023-12-04T14:03:21;22.13;;;7.60;;
43160;SDS011;40968;52.342;5.528;2023-12-04T14:05:48;19.27;;;6.20;;
43160;SDS011;40968;52.342;5.528;2023-12-04T14:08:16;18.63;;;6.63;;
43160;SDS011;40968;52.342;5.528;2023-12-04T14:10:44;20.95;;;7.50;;
43160;SDS011;40968;52.342;5.528;2023-12-04T14:13:10;21.35;;;6.70;;
43160;SDS011;40968;52.342;5.528;2023-12-04T14:15:37;16.95;;;6.18;;
43160;SDS011;40968;52.342;5.528;2023-12-04T14:18:04;19.30;;;7.43;;
43160;SDS011;40968;52.342;5.528;2023-12-04T14:20:31;20.75;;;7.93;;
43160;SDS011;40968;52.342;5.528;2023-12-04T14:22:57;17.92;;;6.85;;
43160;SDS011;40968;52.342;5.528;2023-12-04T14:25:25;22.05;;;7.63;;
43160;SDS011;40968;52.342;5.528;2023-12-04T14:27:52;18.55;;;6.78;;
43160;SDS011;40968;52.342;5.528;2023-12-04T14:30:19;16.42;;;6.75;;
43160;SDS011;40968;52.342;5.528;2023-12-04T14:32:45;20.77;;;7.10;;
43160;SDS011;40968;52.342;5.528;2023-12-04T14:35:12;18.25;;;7.07;;
43160;SDS011;40968;52.342;5.528;2023-12-04T14:37:41;19.13;;;7.15;;
43160;SDS011;40968;52.342;5.528;2023-12-04T14:40:08;16.70;;;7.00;;
43160;SDS011;40968;52.342;5.528;2023-12-04T14:42:37;18.63;;;7.28;;
43160;SDS011;40968;52.342;5.528;2023-12-04T14:45:04;19.42;;;7.05;;
43160;SDS011;40968;52.342;5.528;2023-12-04T14:47:31;23.42;;;7.45;;
43160;SDS011;40968;52.342;5.528;2023-12-04T14:49:57;20.60;;;7.53;;
43160;SDS011;40968;52.342;5.528;2023-12-04T14:52:24;23.73;;;7.40;;
43160;SDS011;40968;52.342;5.528;2023-12-04T14:54:53;23.60;;;7.78;;
43160;SDS011;40968;52.342;5.528;2023-12-04T14:57:44;22.17;;;7.68;;
43160;SDS011;40968;52.342;5.528;2023-12-04T15:00:37;22.08;;;8.18;;
43160;SDS011;40968;52.342;5.528;2023-12-04T15:06:25;19.17;;;6.70;;
43160;SDS011;40968;52.342;5.528;2023-12-04T15:09:08;20.33;;;6.82;;
43160;SDS011;40968;52.342;5.528;2023-12-04T15:12:25;25.48;;;7.93;;
43160;SDS011;40968;52.342;5.528;2023-12-04T15:14:59;23.25;;;7.93;;
43160;SDS011;40968;52.342;5.528;2023-12-04T15:17:38;20.80;;;6.95;;
43160;SDS011;40968;52.342;5.528;2023-12-04T15:20:13;17.88;;;7.00;;
43160;SDS011;40968;52.342;5.528;2023-12-04T15:22:58;19.83;;;7.47;;
43160;SDS011;40968;52.342;5.528;2023-12-04T15:25:25;20.60;;;7.40;;
43160;SDS011;40968;52.342;5.528;2023-12-04T15:27:51;20.20;;;7.53;;
43160;SDS011;40968;52.342;5.528;2023-12-04T15:30:18;18.95;;;7.22;;
43160;SDS011;40968;52.342;5.528;2023-12-04T15:32:45;18.98;;;7.38;;
43160;SDS011;40968;52.342;5.528;2023-12-04T15:35:11;25.77;;;7.30;;
43160;SDS011;40968;52.342;5.528;2023-12-04T15:37:37;21.60;;;7.50;;
43160;SDS011;40968;52.342;5.528;2023-12-04T15:40:06;24.95;;;7.60;;
43160;SDS011;40968;52.342;5.528;2023-12-04T15:42:32;27.73;;;7.95;;
43160;SDS011;40968;52.342;5.528;2023-12-04T15:44:58;26.33;;;7.55;;
43160;SDS011;40968;52.342;5.528;2023-12-04T15:47:24;20.67;;;7.40;;
43160;SDS011;40968;52.342;5.528;2023-12-04T15:49:51;21.95;;;7.57;;
43160;SDS011;40968;52.342;5.528;2023-12-04T15:52:16;21.38;;;8.32;;
43160;SDS011;40968;52.342;5.528;2023-12-04T15:54:43;20.73;;;7.32;;
43160;SDS011;40968;52.342;5.528;2023-12-04T15:57:11;21.05;;;7.10;;
43160;SDS011;40968;52.342;5.528;2023-12-04T15:59:37;24.10;;;7.05;;
43160;SDS011;40968;52.342;5.528;2023-12-04T16:02:03;23.23;;;8.23;;
43160;SDS011;40968;52.342;5.528;2023-12-04T16:04:29;21.15;;;7.50;;
43160;SDS011;40968;52.342;5.528;2023-12-04T16:06:56;18.05;;;6.47;;
43160;SDS011;40968;52.342;5.528;2023-12-04T16:09:23;18.58;;;7.00;;
43160;SDS011;40968;52.342;5.528;2023-12-04T16:11:49;23.67;;;7.65;;
43160;SDS011;40968;52.342;5.528;2023-12-04T16:14:17;24.17;;;7.63;;
43160;SDS011;40968;52.342;5.528;2023-12-04T16:16:44;22.00;;;7.43;;